createdAt,value
2022-07-30T00:01:43.522Z,101926.50
2022-07-30T00:04:10.112Z,101927.66
2022-07-30T00:06:37.938Z,101925.13
2022-07-30T00:09:04.518Z,101924.50
2022-07-30T00:11:30.982Z,101924.72
2022-07-30T00:13:57.495Z,101925.69
2022-07-30T00:16:24.103Z,101920.63
2022-07-30T00:18:50.697Z,101926.84
2022-07-30T00:21:25.578Z,101921.88
2022-07-30T00:24:03.838Z,101916.09
2022-07-30T00:26:30.522Z,101916.31
2022-07-30T00:28:57.033Z,101920.22
2022-07-30T00:33:53.715Z,101922.22
2022-07-30T00:36:20.227Z,101910.84
2022-07-30T00:38:46.683Z,101920.56
2022-07-30T00:41:15.520Z,101915.63
2022-07-30T00:43:42.469Z,101909.06
2022-07-30T00:46:08.962Z,101914.56
2022-07-30T00:48:35.431Z,101906.88
2022-07-30T00:51:01.904Z,101910.44
2022-07-30T00:53:29.758Z,101906.94
2022-07-30T00:55:56.265Z,101905.59
2022-07-30T00:58:22.734Z,101909.16
2022-07-30T01:00:49.213Z,101908.53
2022-07-30T01:03:15.739Z,101906.88
2022-07-30T01:05:42.259Z,101908.66
2022-07-30T01:08:08.751Z,101911.59
2022-07-30T01:10:35.361Z,101906.09
2022-07-30T01:13:02.153Z,101903.75
2022-07-30T01:15:29.668Z,101908.53
2022-07-30T01:18:00.102Z,101905.97
2022-07-30T01:20:55.739Z,101902.50
2022-07-30T01:23:38.150Z,101907.00
2022-07-30T01:26:09.859Z,101902.91
2022-07-30T01:28:40.939Z,101898.47
2022-07-30T01:31:09.165Z,101897.75
2022-07-30T01:33:40.475Z,101892.78
2022-07-30T01:36:10.776Z,101903.44
2022-07-30T01:38:39.423Z,101896.88
2022-07-30T01:41:07.794Z,101900.56
2022-07-30T01:43:35.580Z,101897.19
2022-07-30T01:46:04.288Z,101904.84
2022-07-30T01:48:33.675Z,101912.03
2022-07-30T01:51:04.549Z,101905.03
2022-07-30T01:53:33.810Z,101899.25
2022-07-30T01:56:03.045Z,101896.63
2022-07-30T01:58:33.094Z,101899.38
2022-07-30T02:00:59.812Z,101905.56
2022-07-30T02:03:27.619Z,101905.69
2022-07-30T02:05:58.798Z,101911.97
2022-07-30T02:08:38.748Z,101913.84
2022-07-30T02:11:08.665Z,101912.38
2022-07-30T02:13:45.165Z,101907.63
2022-07-30T02:16:18.082Z,101911.22
2022-07-30T02:18:57.044Z,101908.00
2022-07-30T02:21:26.773Z,101907.06
2022-07-30T02:24:07.375Z,101907.25
2022-07-30T02:26:36.897Z,101907.25
2022-07-30T02:29:07.336Z,101903.78
2022-07-30T02:31:38.473Z,101905.88
2022-07-30T02:34:06.952Z,101906.06
2022-07-30T02:36:35.418Z,101908.06
2022-07-30T02:39:04.376Z,101906.47
2022-07-30T02:41:32.822Z,101907.50
2022-07-30T02:44:01.818Z,101907.69
2022-07-30T02:46:29.644Z,101913.34
2022-07-30T02:48:57.597Z,101914.25
2022-07-30T02:51:26.885Z,101914.38
2022-07-30T02:53:56.683Z,101912.78
2022-07-30T02:56:24.554Z,101912.00
2022-07-30T02:58:52.657Z,101906.88
2022-07-30T03:01:21.730Z,101904.41
2022-07-30T03:03:48.613Z,101903.78
2022-07-30T03:06:15.586Z,101903.97
2022-07-30T03:08:44.685Z,101905.75
2022-07-30T03:11:13.490Z,101904.16
2022-07-30T03:13:40.609Z,101910.75
2022-07-30T03:16:10.037Z,101910.84
2022-07-30T03:18:38.589Z,101904.19
2022-07-30T03:21:08.212Z,101907.00
2022-07-30T03:23:37.592Z,101909.91
2022-07-30T03:26:06.774Z,101906.53
2022-07-30T03:28:36.473Z,101911.88
2022-07-30T03:31:05.436Z,101911.13
2022-07-30T03:33:38.827Z,101915.63
2022-07-30T03:36:06.903Z,101919.31
2022-07-30T03:38:36.928Z,101910.75
2022-07-30T03:41:05.162Z,101913.38
2022-07-30T03:43:33.093Z,101918.63
2022-07-30T03:46:03.600Z,101910.09
2022-07-30T03:48:31.486Z,101907.44
2022-07-30T03:50:58.970Z,101911.97
2022-07-30T03:53:27.608Z,101912.16
2022-07-30T03:55:54.699Z,101912.25
2022-07-30T03:58:21.259Z,101921.91
2022-07-30T04:00:49.963Z,101916.75
2022-07-30T04:03:26.356Z,101922.03
2022-07-30T04:05:53.521Z,101923.03
2022-07-30T04:08:20.331Z,101925.78
2022-07-30T04:10:48.483Z,101923.16
2022-07-30T04:13:15.863Z,101927.53
2022-07-30T04:16:39.590Z,101923.16
2022-07-30T04:19:00.053Z,101928.59
2022-07-30T04:21:27.527Z,101935.81
2022-07-30T04:24:03.704Z,101934.09
2022-07-30T04:26:33.750Z,101943.78
2022-07-30T04:29:02.456Z,101940.31
2022-07-30T04:31:29.894Z,101935.03
2022-07-30T04:33:58.851Z,101938.50
2022-07-30T04:36:33.007Z,101939.47
2022-07-30T04:39:00.316Z,101935.88
2022-07-30T04:41:26.858Z,101942.09
2022-07-30T04:43:53.587Z,101949.03
2022-07-30T04:46:20.142Z,101952.41
2022-07-30T04:48:51.065Z,101958.69
2022-07-30T04:51:31.989Z,101955.78
2022-07-30T04:54:00.097Z,101959.28
2022-07-30T04:56:28.648Z,101959.28
2022-07-30T04:58:56.516Z,101956.56
2022-07-30T05:01:37.075Z,101957.31
2022-07-30T05:04:10.143Z,101953.56
2022-07-30T05:06:39.578Z,101955.16
2022-07-30T05:09:06.433Z,101951.31
2022-07-30T05:11:33.281Z,101941.25
2022-07-30T05:13:59.817Z,101950.66
2022-07-30T05:16:26.735Z,101951.13
2022-07-30T05:18:53.487Z,101950.94
2022-07-30T05:21:20.097Z,101955.09
2022-07-30T05:23:50.010Z,101956.59
2022-07-30T05:26:21.155Z,101958.75
2022-07-30T05:28:52.099Z,101968.06
2022-07-30T05:31:20.614Z,101969.72
2022-07-30T05:33:47.858Z,101967.44
2022-07-30T05:36:14.327Z,101970.16
2022-07-30T05:38:40.840Z,101977.53
2022-07-30T05:41:19.013Z,101974.06
2022-07-30T05:43:56.060Z,101971.13
2022-07-30T05:46:23.083Z,101973.38
2022-07-30T05:48:49.867Z,101972.78
2022-07-30T05:51:16.914Z,101979.09
2022-07-30T05:53:43.391Z,101978.38
2022-07-30T05:56:09.816Z,101982.97
2022-07-30T05:58:36.287Z,101981.63
2022-07-30T06:01:02.729Z,101983.34
2022-07-30T06:03:29.200Z,101989.25
2022-07-30T06:05:55.941Z,101985.78
2022-07-30T06:08:22.395Z,101992.38
2022-07-30T06:10:48.907Z,101995.03
2022-07-30T06:13:15.358Z,101986.69
2022-07-30T06:15:41.891Z,101987.47
2022-07-30T06:18:08.428Z,102003.56
2022-07-30T06:20:35.223Z,101999.16
2022-07-30T06:23:01.901Z,101995.47
2022-07-30T06:25:28.382Z,101991.75
2022-07-30T06:27:54.910Z,102005.28
2022-07-30T06:30:21.370Z,102001.16
2022-07-30T06:32:57.513Z,102000.75
2022-07-30T06:35:24.012Z,102007.81
2022-07-30T06:38:05.878Z,102005.19
2022-07-30T06:40:34.762Z,102006.78
2022-07-30T06:43:01.601Z,102007.41
2022-07-30T06:45:28.132Z,102010.47
2022-07-30T06:47:58.794Z,102009.38
2022-07-30T06:50:27.353Z,102006.88
2022-07-30T06:52:53.971Z,102005.69
2022-07-30T06:55:20.475Z,102007.16
2022-07-30T06:57:46.926Z,102006.66
2022-07-30T07:00:13.652Z,102013.22
2022-07-30T07:02:40.122Z,102007.50
2022-07-30T07:05:07.424Z,102012.78
2022-07-30T07:07:42.512Z,102000.94
2022-07-30T07:10:13.068Z,102009.06
2022-07-30T07:12:39.600Z,102012.16
2022-07-30T07:15:06.607Z,102009.06
2022-07-30T07:17:33.089Z,102012.63
2022-07-30T07:20:02.328Z,102014.44
2022-07-30T07:22:29.765Z,102016.66
2022-07-30T07:24:56.480Z,102015.19
2022-07-30T07:27:23.050Z,102016.03
2022-07-30T07:30:01.499Z,102008.81
2022-07-30T07:32:33.557Z,102017.97
2022-07-30T07:35:00.032Z,102014.19
2022-07-30T07:37:26.571Z,102024.06
2022-07-30T07:39:53.122Z,102022.56
2022-07-30T07:42:19.565Z,102022.06
2022-07-30T07:44:45.998Z,102030.44
2022-07-30T07:47:12.443Z,102023.41
2022-07-30T07:49:38.865Z,102028.69
2022-07-30T07:52:05.787Z,102025.72
2022-07-30T07:54:32.520Z,102024.41
2022-07-30T07:56:59.357Z,102022.38
2022-07-30T07:59:36.294Z,102031.78
2022-07-30T08:02:08.587Z,102031.41
2022-07-30T08:04:36.012Z,102030.81
2022-07-30T08:07:03.384Z,102031.13
2022-07-30T08:09:43.946Z,102031.50
2022-07-30T08:12:12.660Z,102024.16
2022-07-30T08:14:39.373Z,102018.03
2022-07-30T08:17:06.371Z,102018.44
2022-07-30T08:19:33.426Z,102009.03
2022-07-30T08:21:59.918Z,102016.75
2022-07-30T08:24:27.020Z,102003.50
2022-07-30T08:26:53.579Z,102011.09
2022-07-30T08:29:20.010Z,102012.41
2022-07-30T08:31:46.528Z,102010.47
2022-07-30T08:34:13.617Z,102011.34
2022-07-30T08:36:40.535Z,102017.09
2022-07-30T08:39:07.025Z,102018.19
2022-07-30T08:41:33.698Z,102015.19
2022-07-30T08:44:01.593Z,102004.09
2022-07-30T08:46:31.090Z,102014.09
2022-07-30T08:48:59.806Z,102005.81
2022-07-30T08:51:38.100Z,102008.81
2022-07-30T08:54:04.995Z,101997.94
2022-07-30T08:56:32.893Z,102005.41
2022-07-30T08:59:02.966Z,102005.75
2022-07-30T09:01:29.480Z,102009.47
2022-07-30T09:03:56.000Z,102007.69
2022-07-30T09:06:22.632Z,102014.06
2022-07-30T09:08:49.244Z,102008.97
2022-07-30T09:11:16.197Z,102010.25
2022-07-30T09:13:44.572Z,102006.25
2022-07-30T09:16:25.595Z,102011.53
2022-07-30T09:18:53.773Z,102024.78
2022-07-30T09:21:26.942Z,102033.09
2022-07-30T09:24:02.554Z,102031.09
2022-07-30T09:26:30.632Z,102026.97
2022-07-30T09:29:16.776Z,102037.81
2022-07-30T09:31:54.980Z,102030.88
2022-07-30T09:34:40.155Z,102031.66
2022-07-30T09:37:09.622Z,102033.91
2022-07-30T09:39:41.523Z,102028.53
2022-07-30T09:42:18.722Z,102015.44
2022-07-30T09:44:46.021Z,102023.13
2022-07-30T09:47:33.167Z,102023.53
2022-07-30T09:50:08.268Z,102022.59
2022-07-30T09:52:35.307Z,102023.31
2022-07-30T09:55:01.886Z,102014.38
2022-07-30T09:57:30.302Z,102014.78
2022-07-30T09:59:57.938Z,102022.38
2022-07-30T10:02:33.921Z,102019.75
2022-07-30T10:05:14.556Z,102010.13
2022-07-30T10:08:09.455Z,102006.25
2022-07-30T10:10:47.291Z,102006.00
2022-07-30T10:13:20.854Z,102007.28
2022-07-30T10:15:49.624Z,101995.25
2022-07-30T10:18:18.200Z,101995.94
2022-07-30T10:20:45.620Z,101997.50
2022-07-30T10:23:15.763Z,101998.91
2022-07-30T10:25:49.629Z,101989.53
2022-07-30T10:28:22.567Z,101995.41
2022-07-30T10:30:51.813Z,101998.63
2022-07-30T10:33:36.236Z,101990.91
2022-07-30T10:36:05.435Z,101998.78
2022-07-30T10:38:39.079Z,102007.88
2022-07-30T10:41:42.657Z,101999.75
2022-07-30T10:44:20.884Z,102002.53
2022-07-30T10:47:09.251Z,102001.44
2022-07-30T10:49:41.144Z,101997.91
2022-07-30T10:52:08.923Z,102000.28
2022-07-30T10:54:40.234Z,102001.47
2022-07-30T10:57:32.291Z,101999.06
2022-07-30T11:00:00.527Z,102009.97
2022-07-30T11:02:34.885Z,102003.16
2022-07-30T11:05:27.290Z,102005.09
2022-07-30T11:08:36.326Z,102001.44
2022-07-30T11:11:59.532Z,102005.06
2022-07-30T11:14:09.660Z,102005.75
2022-07-30T11:16:36.896Z,101999.59
2022-07-30T11:19:56.793Z,101999.75
2022-07-30T11:22:40.390Z,102003.22
2022-07-30T11:25:12.708Z,102002.13
2022-07-30T11:27:48.851Z,102005.22
2022-07-30T11:30:15.519Z,102005.63
2022-07-30T11:32:48.709Z,102007.25
2022-07-30T11:35:23.057Z,101998.44
2022-07-30T11:38:04.223Z,101997.84
2022-07-30T11:40:42.816Z,102001.56
2022-07-30T11:43:18.679Z,102001.34
2022-07-30T11:45:47.125Z,101997.34
2022-07-30T11:48:15.802Z,101993.09
2022-07-30T11:50:43.613Z,101999.88
2022-07-30T11:53:21.195Z,101998.25
2022-07-30T11:55:58.363Z,101995.19
2022-07-30T11:58:37.210Z,102000.22
2022-07-30T12:01:09.173Z,101994.97
2022-07-30T12:03:40.929Z,101987.75
2022-07-30T12:06:10.501Z,101990.28
2022-07-30T12:08:42.266Z,101997.22
2022-07-30T12:11:09.715Z,101993.53
2022-07-30T12:13:45.441Z,101992.59
2022-07-30T12:16:18.292Z,101992.28
2022-07-30T12:18:46.601Z,101989.22
2022-07-30T12:21:16.058Z,101994.78
2022-07-30T12:23:53.284Z,101993.06
2022-07-30T12:26:26.557Z,101988.16
2022-07-30T12:28:55.084Z,101989.41
2022-07-30T12:31:21.805Z,101992.84
2022-07-30T12:33:48.252Z,101988.78
2022-07-30T12:36:30.790Z,101987.19
2022-07-30T12:38:58.731Z,101986.44
2022-07-30T12:41:45.939Z,101993.47
2022-07-30T12:44:36.200Z,101991.84
2022-07-30T12:47:05.835Z,101986.47
2022-07-30T12:49:37.781Z,101982.91
2022-07-30T12:52:27.809Z,101993.75
2022-07-30T12:55:04.122Z,101981.94
2022-07-30T12:58:05.474Z,101984.38
2022-07-30T13:00:53.156Z,101989.72
2022-07-30T13:03:28.273Z,101994.31
2022-07-30T13:05:57.754Z,101993.97
2022-07-30T13:08:49.307Z,101984.09
2022-07-30T13:11:17.323Z,101981.28
2022-07-30T13:13:43.776Z,101987.47
2022-07-30T13:16:10.789Z,101981.16
2022-07-30T13:18:37.904Z,101990.56
2022-07-30T13:21:07.749Z,101989.16
2022-07-30T13:23:34.571Z,101977.31
2022-07-30T13:26:01.131Z,101979.16
2022-07-30T13:28:28.076Z,101983.16
2022-07-30T13:30:56.722Z,101978.97
2022-07-30T13:33:23.811Z,101979.13
2022-07-30T13:35:50.278Z,101976.66
2022-07-30T13:38:16.765Z,101975.72
2022-07-30T13:40:43.346Z,101978.13
2022-07-30T13:43:09.845Z,101977.13
2022-07-30T13:45:36.986Z,101981.69
2022-07-30T13:48:04.004Z,101970.63
2022-07-30T13:50:30.557Z,101976.53
2022-07-30T13:53:01.700Z,101974.06
2022-07-30T13:55:29.022Z,101974.91
2022-07-30T13:57:55.900Z,101968.94
2022-07-30T14:00:23.032Z,101965.09
2022-07-30T14:02:49.638Z,101970.91
2022-07-30T14:05:16.223Z,101960.53
2022-07-30T14:07:42.907Z,101963.06
2022-07-30T14:10:09.550Z,101968.38
2022-07-30T14:12:36.360Z,101974.88
2022-07-30T14:15:03.559Z,101965.38
2022-07-30T14:17:30.087Z,101964.19
2022-07-30T14:19:56.582Z,101968.84
2022-07-30T14:22:23.578Z,101966.63
2022-07-30T14:24:50.042Z,101967.88
2022-07-30T14:27:19.756Z,101966.03
2022-07-30T14:29:46.884Z,101957.16
2022-07-30T14:32:13.449Z,101956.47
2022-07-30T14:34:39.990Z,101962.22
2022-07-30T14:37:06.490Z,101958.41
2022-07-30T14:39:36.344Z,101958.47
2022-07-30T14:42:02.817Z,101955.50
2022-07-30T14:44:29.958Z,101956.00
2022-07-30T14:46:56.429Z,101958.38
2022-07-30T14:49:24.031Z,101962.00
2022-07-30T14:51:50.895Z,101967.19
2022-07-30T14:54:17.657Z,101967.19
2022-07-30T14:56:44.123Z,101955.91
2022-07-30T14:59:11.036Z,101956.66
2022-07-30T15:01:37.649Z,101959.63
2022-07-30T15:04:04.200Z,101960.31
2022-07-30T15:06:30.696Z,101960.84
2022-07-30T15:08:57.125Z,101955.31
2022-07-30T15:11:24.358Z,101957.16
2022-07-30T15:13:52.260Z,101958.69
2022-07-30T15:16:19.516Z,101957.72
2022-07-30T15:18:46.275Z,101948.41
2022-07-30T15:21:12.815Z,101949.75
2022-07-30T15:23:39.272Z,101955.97
2022-07-30T15:26:05.876Z,101957.50
2022-07-30T15:28:32.419Z,101949.47
2022-07-30T15:30:59.017Z,101950.81
2022-07-30T15:33:25.665Z,101955.97
2022-07-30T15:35:52.170Z,101958.47
2022-07-30T15:38:18.743Z,101957.19
2022-07-30T15:40:45.202Z,101960.84
2022-07-30T15:43:11.698Z,101965.56
2022-07-30T15:45:55.266Z,101958.75
2022-07-30T15:48:26.512Z,101957.25
2022-07-30T15:51:01.558Z,101961.09
2022-07-30T15:53:28.743Z,101961.09
2022-07-30T15:55:55.241Z,101962.97
2022-07-30T15:58:21.701Z,101964.44
2022-07-30T16:00:48.441Z,101963.94
2022-07-30T16:03:14.950Z,101960.59
2022-07-30T16:05:52.306Z,101960.25
2022-07-30T16:08:20.417Z,101958.25
2022-07-30T16:10:46.877Z,101956.09
2022-07-30T16:13:13.381Z,101951.91
2022-07-30T16:15:39.945Z,101956.59
2022-07-30T16:18:06.460Z,101952.06
2022-07-30T16:20:33.325Z,101943.88
2022-07-30T16:22:59.768Z,101951.22
2022-07-30T16:25:26.549Z,101945.53
2022-07-30T16:27:53.249Z,101945.38
2022-07-30T16:30:19.912Z,101948.56
2022-07-30T16:32:46.409Z,101946.38
2022-07-30T16:35:13.449Z,101937.81
2022-07-30T16:37:40.193Z,101940.16
2022-07-30T16:40:07.048Z,101941.13
2022-07-30T16:42:33.520Z,101938.78
2022-07-30T16:44:59.968Z,101934.59
2022-07-30T16:47:26.417Z,101941.09
2022-07-30T16:49:52.990Z,101937.03
2022-07-30T16:52:19.734Z,101933.66
2022-07-30T16:54:46.386Z,101940.75
2022-07-30T16:57:13.012Z,101935.59
2022-07-30T16:59:42.198Z,101938.06
2022-07-30T17:02:10.462Z,101940.09
2022-07-30T17:04:36.961Z,101938.38
2022-07-30T17:07:03.403Z,101938.38
2022-07-30T17:09:31.946Z,101936.19
2022-07-30T17:12:03.681Z,101935.31
2022-07-30T17:14:30.414Z,101935.41
2022-07-30T17:16:57.014Z,101938.41
2022-07-30T17:19:23.487Z,101943.72
2022-07-30T17:21:49.912Z,101934.16
2022-07-30T17:24:16.467Z,101937.16
2022-07-30T17:26:44.964Z,101941.41
2022-07-30T17:29:15.860Z,101937.63
2022-07-30T17:31:44.270Z,101937.88
2022-07-30T17:34:13.678Z,101942.38
2022-07-30T17:36:50.177Z,101934.84
2022-07-30T17:40:27.182Z,101939.13
2022-07-30T17:42:08.563Z,101942.16
2022-07-30T17:44:35.471Z,101935.53
2022-07-30T17:47:02.130Z,101934.16
2022-07-30T17:49:29.792Z,101933.25
2022-07-30T17:51:56.483Z,101936.78
2022-07-30T17:54:23.030Z,101933.88
2022-07-30T17:56:49.457Z,101926.84
2022-07-30T17:59:15.915Z,101924.06
2022-07-30T18:01:42.415Z,101923.53
2022-07-30T18:04:08.878Z,101922.78
2022-07-30T18:06:35.921Z,101917.53
2022-07-30T18:09:04.731Z,101919.84
2022-07-30T18:11:31.384Z,101920.28
2022-07-30T18:13:58.011Z,101920.06
2022-07-30T18:16:25.085Z,101921.06
2022-07-30T18:18:51.652Z,101913.88
2022-07-30T18:21:18.139Z,101914.06
2022-07-30T18:23:44.677Z,101916.19
2022-07-30T18:26:11.300Z,101911.53
2022-07-30T18:28:37.854Z,101918.84
2022-07-30T18:31:04.361Z,101919.16
2022-07-30T18:33:30.869Z,101912.41
2022-07-30T18:35:57.328Z,101920.59
2022-07-30T18:38:23.812Z,101912.59
2022-07-30T18:40:59.294Z,101910.75
2022-07-30T18:43:30.642Z,101905.59
2022-07-30T18:45:58.383Z,101905.94
2022-07-30T18:48:25.154Z,101912.28
2022-07-30T18:50:52.997Z,101912.28
2022-07-30T18:53:19.784Z,101907.78
2022-07-30T18:55:46.282Z,101902.09
2022-07-30T18:58:12.807Z,101916.56
2022-07-30T19:00:43.964Z,101919.81
2022-07-30T19:05:45.814Z,101907.69
2022-07-30T19:08:12.309Z,101914.47
2022-07-30T19:10:39.912Z,101915.19
2022-07-30T19:13:06.588Z,101906.25
2022-07-30T19:15:33.098Z,101904.28
2022-07-30T19:17:59.535Z,101905.75
2022-07-30T19:20:26.729Z,101905.63
2022-07-30T19:23:12.315Z,101899.63
2022-07-30T19:25:39.248Z,101900.75
2022-07-30T19:28:05.880Z,101901.19
2022-07-30T19:30:33.401Z,101903.16
2022-07-30T19:33:05.167Z,101905.00
2022-07-30T19:35:31.930Z,101904.56
2022-07-30T19:37:58.479Z,101905.84
2022-07-30T19:43:12.007Z,101912.75
2022-07-30T19:45:47.757Z,101921.84
2022-07-30T19:48:15.721Z,101920.31
2022-07-30T19:50:56.842Z,101911.94
2022-07-30T19:53:23.402Z,101912.22
2022-07-30T19:55:50.695Z,101907.06
2022-07-30T19:58:20.045Z,101904.69
2022-07-30T20:00:49.743Z,101909.09
2022-07-30T20:03:25.291Z,101910.94
2022-07-30T20:05:57.410Z,101910.09
2022-07-30T20:08:25.480Z,101916.69
2022-07-30T20:10:52.435Z,101912.78
2022-07-30T20:13:19.075Z,101911.38
2022-07-30T20:15:46.373Z,101907.19
2022-07-30T20:18:13.005Z,101902.03
2022-07-30T20:20:41.274Z,101900.75
2022-07-30T20:23:08.127Z,101898.53
2022-07-30T20:25:37.305Z,101901.31
2022-07-30T20:28:04.813Z,101910.28
2022-07-30T20:30:31.506Z,101905.97
2022-07-30T20:32:58.075Z,101903.88
2022-07-30T20:35:26.454Z,101902.59
2022-07-30T20:40:40.535Z,101906.38
2022-07-30T20:43:09.274Z,101912.00
2022-07-30T20:45:40.705Z,101911.28
2022-07-30T20:48:08.518Z,101911.28
2022-07-30T20:50:46.527Z,101908.06
2022-07-30T20:53:15.915Z,101908.91
2022-07-30T20:55:42.439Z,101908.19
2022-07-30T20:58:17.483Z,101906.53
2022-07-30T21:00:50.006Z,101915.88
2022-07-30T21:03:21.728Z,101906.94
2022-07-30T21:05:48.779Z,101912.38
2022-07-30T21:08:19.028Z,101911.44
2022-07-30T21:10:46.756Z,101910.88
2022-07-30T21:13:13.716Z,101907.94
2022-07-30T21:15:45.593Z,101913.34
2022-07-30T21:18:27.649Z,101908.44
2022-07-30T21:20:54.150Z,101905.34
2022-07-30T21:23:23.660Z,101899.47
2022-07-30T21:26:01.536Z,101896.97
2022-07-30T21:28:35.918Z,101892.59
2022-07-30T21:31:03.963Z,101895.53
2022-07-30T21:33:33.784Z,101899.19
2022-07-30T21:36:01.037Z,101890.66
2022-07-30T21:38:27.740Z,101890.94
2022-07-30T21:40:55.203Z,101896.50
2022-07-30T21:43:29.551Z,101889.38
2022-07-30T21:45:57.495Z,101888.81
2022-07-30T21:48:24.369Z,101889.78
2022-07-30T21:50:50.850Z,101892.59
2022-07-30T21:53:17.484Z,101893.81
2022-07-30T21:55:56.881Z,101895.09
2022-07-30T21:58:26.085Z,101890.88
2022-07-30T22:00:54.971Z,101895.50
2022-07-30T22:04:02.744Z,101893.13
2022-07-30T22:06:12.646Z,101899.13
2022-07-30T22:08:39.463Z,101891.97
2022-07-30T22:13:54.310Z,101891.53
2022-07-30T22:16:21.793Z,101892.38
2022-07-30T22:18:48.488Z,101894.19
2022-07-30T22:21:15.312Z,101888.19
2022-07-30T22:23:58.298Z,101883.97
2022-07-30T22:26:27.558Z,101899.06
2022-07-30T22:28:54.428Z,101892.22
2022-07-30T22:31:21.122Z,101888.00
2022-07-30T22:33:49.825Z,101891.03
2022-07-30T22:36:17.643Z,101888.50
2022-07-30T22:38:58.814Z,101889.22
2022-07-30T22:41:26.328Z,101887.81
2022-07-30T22:43:55.681Z,101893.50
2022-07-30T22:46:30.991Z,101882.78
2022-07-30T22:48:57.841Z,101881.22
2022-07-30T22:51:25.886Z,101891.25
2022-07-30T22:54:13.036Z,101883.56
2022-07-30T22:56:40.533Z,101881.88
2022-07-30T22:59:06.999Z,101884.53
2022-07-30T23:01:33.667Z,101877.53
2022-07-30T23:04:01.376Z,101872.38
2022-07-30T23:06:28.443Z,101873.34
2022-07-30T23:08:56.706Z,101866.50
2022-07-30T23:11:23.207Z,101870.97
2022-07-30T23:12:17.358Z,101914.28
2022-07-30T23:12:19.215Z,101910.72
2022-07-30T23:12:31.225Z,101895.75
2022-07-30T23:13:49.812Z,101876.53
2022-07-30T23:16:16.333Z,101877.63
2022-07-30T23:18:42.748Z,101880.50
2022-07-30T23:21:09.967Z,101881.09
2022-07-30T23:23:36.768Z,101881.53
2022-07-30T23:26:04.698Z,101890.72
2022-07-30T23:28:31.363Z,101895.56
2022-07-30T23:30:57.880Z,101890.13
2022-07-30T23:33:24.407Z,101885.66
2022-07-30T23:35:51.193Z,101882.16
2022-07-30T23:38:17.658Z,101882.41
2022-07-30T23:40:44.464Z,101882.56
2022-07-30T23:43:11.008Z,101874.59
2022-07-30T23:45:37.501Z,101875.69
2022-07-30T23:48:04.188Z,101873.31
2022-07-30T23:50:32.681Z,101882.47
2022-07-30T23:53:00.100Z,101869.47
2022-07-30T23:55:27.284Z,101862.63
2022-07-30T23:57:53.876Z,101870.81
